ADDS METAR Data INFO
IDs: Format: Raw Decoded Include TAF

Data at: 2137 UTC 15 Dec 2017

KASW 152115Z AUTO 27011KT 10SM OVC046 M02/M08 A2992 RMK AO2
KASW 152055Z AUTO 27011KT 10SM BKN044 M02/M08 A2991 RMK AO2
KASW 152035Z AUTO 28011G17KT 10SM SCT044 M02/M08 A2991 RMK AO2
KASW 152015Z AUTO 27011G19KT 10SM CLR M02/M08 A2990 RMK AO2
KASW 151955Z AUTO 29011KT 10SM SCT032 SCT039 M02/M08 A2990 RMK AO2
KASW 151935Z AUTO 28012G20KT 10SM OVC030 M02/M08 A2990 RMK AO2
KASW 151915Z AUTO 28017KT 10SM BKN028 BKN035 BKN043 M02/M07 A2990 RMK AO2
KASW 151855Z AUTO 27015KT 10SM SCT038 SCT044 M02/M07 A2990 RMK AO2
KASW 151835Z AUTO 27013G22KT 10SM SCT018 SCT026 OVC038 M03/M06 A2990 RMK AO2
KASW 151815Z AUTO 27012KT 7SM -SN BKN018 OVC027 M02/M06 A2990 RMK AO2
KASW 151755Z AUTO 26014G19KT 7SM -SN BKN018 OVC024 M02/M06 A2990 RMK AO2
KASW 151735Z AUTO 26010G18KT 7SM -SN OVC016 M03/M06 A2990 RMK AO2
KASW 151715Z AUTO 26011G17KT 7SM -SN OVC016 M03/M06 A2990 RMK AO2
KASW 151655Z AUTO 24012G16KT 3SM -SN BKN016 OVC029 M03/M06 A2990 RMK AO2
KASW 151635Z AUTO 25014G17KT 4SM -SN SCT018 BKN026 OVC034 M03/M06 A2991 RMK AO2
KASW 151615Z AUTO 25012G16KT 3SM -SN SCT018 OVC032 M03/M07 A2991 RMK AO2
KASW 151555Z AUTO 25008KT 4SM -SN BKN020 OVC032 M04/M07 A2992 RMK AO2
KASW 151535Z AUTO 26010G16KT 10SM OVC020 M04/M07 A2992 RMK AO2
KASW 151515Z AUTO 25009KT 10SM OVC020 M04/M08 A2992 RMK AO2
KASW 151455Z AUTO 24011G16KT 10SM OVC024 M04/M08 A2991 RMK AO2
KASW 151435Z AUTO 24010G15KT 10SM OVC022 M04/M08 A2991 RMK AO2
KASW 151415Z AUTO 24010G15KT 10SM OVC025 M04/M08 A2991 RMK AO2
KASW 151355Z AUTO 23008KT 10SM OVC027 M05/M09 A2991 RMK AO2
KASW 151335Z AUTO 23008KT 10SM OVC027 M05/M10 A2992 RMK AO2
KASW 151315Z AUTO 23007KT 10SM OVC029 M05/M10 A2992 RMK AO2
KASW 151255Z AUTO 21004KT 10SM OVC027 M05/M10 A2992 RMK AO2
KASW 151235Z AUTO 23005KT 10SM OVC029 M05/M10 A2993 RMK AO2
KASW 151215Z AUTO 22004KT 10SM OVC029 M05/M10 A2993 RMK AO2
KASW 151155Z AUTO 23004KT 10SM OVC029 M06/M10 A2994 RMK AO2
KASW 151135Z AUTO 23005KT 10SM OVC029 M06/M10 A2994 RMK AO2
KASW 151115Z AUTO 23006KT 10SM OVC031 M06/M10 A2995 RMK AO2
KASW 151055Z AUTO 23007KT 10SM SCT031 OVC090 M06/M10 A2995 RMK AO2
KASW 151035Z AUTO 23004KT 10SM OVC090 M06/M10 A2995 RMK AO2
KASW 151015Z AUTO 24005KT 10SM OVC100 M06/M10 A2995 RMK AO2
KASW 150955Z AUTO 00000KT 10SM OVC100 M07/M10 A2996 RMK AO2
KASW 150935Z AUTO 00000KT 10SM OVC100 M07/M10 A2997 RMK AO2
KASW 150915Z AUTO 00000KT 10SM OVC100 M07/M10 A2997 RMK AO2
KASW 150855Z AUTO 00000KT 10SM BKN100 M07/M10 A2999 RMK AO2
KASW 150835Z AUTO 00000KT 10SM SCT100 M07/M11 A2999 RMK AO2
KASW 150815Z AUTO 00000KT 10SM SCT035 M07/M10 A2999 RMK AO2
KASW 150755Z AUTO 24003KT 10SM BKN037 M07/M10 A2999 RMK AO2
KASW 150735Z AUTO 25003KT 10SM OVC037 M06/M10 A3000 RMK AO2
KASW 150715Z AUTO 00000KT 10SM OVC039 M06/M10 A3000 RMK AO2
KASW 150655Z AUTO 25003KT 10SM SCT024 OVC041 M06/M10 A3001 RMK AO2
KASW 150635Z AUTO 00000KT 10SM SCT024 OVC041 M06/M10 A3001 RMK AO2
KASW 150615Z AUTO 00000KT 10SM SCT023 OVC041 M06/M10 A3002 RMK AO2
KASW 150555Z AUTO 23003KT 10SM SCT023 OVC041 M06/M11 A3003 RMK AO2
KASW 150535Z AUTO 00000KT 10SM SCT022 SCT026 OVC043 M06/M11 A3003 RMK AO2
KASW 150515Z AUTO 00000KT 10SM BKN022 OVC041 M06/M11 A3004 RMK AO2
KASW 150455Z AUTO 00000KT 10SM OVC028 M07/M11 A3005 RMK AO2
KASW 150435Z AUTO 00000KT 10SM OVC030 M07/M12 A3005 RMK AO2
KASW 150415Z AUTO 00000KT 10SM OVC030 M07/M12 A3006 RMK AO2
KASW 150355Z AUTO 00000KT 10SM BKN032 M07/M12 A3006 RMK AO2
KASW 150335Z AUTO 00000KT 10SM SCT034 M08/M12 A3006 RMK AO2
KASW 150315Z AUTO 00000KT 10SM SCT038 M08/M12 A3006 RMK AO2
KASW 150255Z AUTO 00000KT 10SM CLR M07/M12 A3006 RMK AO2
KASW 150235Z AUTO 00000KT 10SM CLR M07/M12 A3006 RMK AO2
KASW 150215Z AUTO 00000KT 10SM BKN047 M06/M12 A3006 RMK AO2
KASW 150155Z AUTO 00000KT 10SM OVC047 M06/M11 A3007 RMK AO2
KASW 150135Z AUTO 00000KT 10SM OVC047 M05/M11 A3007 RMK AO2
KASW 150115Z AUTO 00000KT 10SM OVC045 M05/M12 A3007 RMK AO2
KASW 150055Z AUTO 00000KT 10SM OVC045 M05/M12 A3007 RMK AO2
KASW 150035Z AUTO 00000KT 10SM OVC045 M05/M12 A3007 RMK AO2
KASW 150015Z AUTO 00000KT 10SM OVC045 M05/M12 A3007 RMK AO2
KASW 142355Z AUTO 00000KT 10SM SCT026 OVC045 M05/M11 A3007 RMK AO2
KASW 142335Z AUTO 00000KT 10SM SCT030 OVC043 M05/M12 A3007 RMK AO2
KASW 142315Z AUTO 00000KT 10SM BKN030 OVC043 M05/M12 A3007 RMK AO2
KASW 142255Z AUTO 00000KT 10SM SCT025 SCT032 OVC045 M05/M12 A3007 RMK AO2
KASW 142235Z AUTO 00000KT 10SM OVC027 M05/M12 A3006 RMK AO2
KASW 142215Z AUTO 00000KT 10SM OVC027 M05/M12 A3006 RMK AO2
KASW 142155Z AUTO 00000KT 10SM SCT029 OVC043 M05/M12 A3006 RMK AO2
KASW 142135Z AUTO 24004KT 10SM BKN029 OVC045 M05/M12 A3005 RMK AO2
KASW 142115Z AUTO 27004KT 10SM OVC029 M05/M12 A3005 RMK AO2
KASW 142055Z AUTO 27004KT 10SM BKN031 OVC042 M05/M12 A3004 RMK AO2
KASW 142035Z AUTO 00000KT 10SM BKN031 BKN036 OVC042 M05/M12 A3004 RMK AO2
KASW 142015Z AUTO 00000KT 10SM SCT031 OVC036 M05/M12 A3004 RMK AO2
KASW 141955Z AUTO 00000KT 10SM OVC036 M05/M13 A3004 RMK AO2
KASW 141935Z AUTO 00000KT 10SM SCT034 OVC044 M05/M12 A3004 RMK AO2
KASW 141915Z AUTO 00000KT 10SM BKN044 M05/M13 A3004 RMK AO2
KASW 141855Z AUTO 00000KT 10SM OVC044 M05/M13 A3004 RMK AO2
KASW 141835Z AUTO 00000KT 10SM BKN044 M05/M13 A3004 RMK AO2
KASW 141815Z AUTO 00000KT 10SM BKN044 M06/M14 A3004 RMK AO2
KASW 141755Z AUTO 00000KT 10SM OVC044 M05/M14 A3004 RMK AO2
KASW 141735Z AUTO 00000KT 10SM BKN044 M06/M14 A3005 RMK AO2
KASW 141715Z AUTO 00000KT 10SM SCT044 M06/M15 A3006 RMK AO2
KASW 141655Z AUTO 08003KT 10SM BKN042 M06/M15 A3006 RMK AO2
KASW 141635Z AUTO 11003KT 10SM BKN042 M07/M15 A3006 RMK AO2
KASW 141615Z AUTO 09004KT 10SM OVC042 M07/M15 A3006 RMK AO2
KASW 141555Z AUTO 10003KT 10SM OVC042 M07/M13 A3006 RMK AO2
KASW 141535Z AUTO 11005KT 10SM OVC042 M08/M13 A3005 RMK AO2
KASW 141515Z AUTO 14003KT 10SM BKN042 M10/M11 A3004 RMK AO2
KASW 141455Z AUTO 00000KT 10SM CLR M11/M12 A3003 RMK AO2
KASW 141435Z AUTO 00000KT 10SM CLR M11/M13 A3001 RMK AO2
KASW 141415Z AUTO 00000KT 10SM CLR M12/M13 A3001 RMK AO2
KASW 141355Z AUTO 00000KT 10SM CLR M12/M13 A3000 RMK AO2
KASW 141335Z AUTO 00000KT 10SM CLR M12/M13 A2999 RMK AO2
KASW 141315Z AUTO 00000KT 10SM CLR M12/M13 A2999 RMK AO2
KASW 141255Z AUTO 00000KT 7SM CLR M12/M13 A2997 RMK AO2
KASW 141235Z AUTO 00000KT 10SM CLR M11/M12 A2996 RMK AO2
KASW 141215Z AUTO 36003KT 10SM CLR M11/M12 A2995 RMK AO2
KASW 141155Z AUTO 35004KT 10SM CLR M10/M12 A2994 RMK AO2
KASW 141135Z AUTO 35004KT 10SM CLR M10/M12 A2993 RMK AO2
KASW 141115Z AUTO 32005KT 10SM CLR M10/M11 A2992 RMK AO2
KASW 141055Z AUTO 33006KT 10SM CLR M09/M11 A2989 RMK AO2
KASW 141035Z AUTO 34005KT 10SM CLR M08/M10 A2988 RMK AO2
KASW 141015Z AUTO 34004KT 10SM CLR M08/M10 A2986 RMK AO2
KASW 140955Z AUTO 34005KT 10SM SCT013 M07/M10 A2986 RMK AO2